Time;durP1;ratioP1;P1;durP2;ratioP2;P2;SDS_P1;SDS_P2;PMS_P1;PMS_P2;Temp;Humidity;BMP_temperature;BMP_pressure;BME280_temperature;BME280_humidity;BME280_pressure;Samples;Min_cycle;Max_cycle;Signal;HPM_P1;HPM_P2
2023/03/28 00:00:32;;;;;;;0.90;0.77;;;;;;;3.30;83.88;95973.34;4381552;32;20252;-53
2023/03/28 00:02:57;;;;;;;0.53;0.53;;;;;;;3.16;84.34;95979.06;4379072;32;20206;-55
2023/03/28 00:05:23;;;;;;;1.00;1.00;;;;;;;2.99;84.80;95990.25;4389330;32;20196;-55
2023/03/28 00:07:49;;;;;;;0.73;0.73;;;;;;;2.77;85.66;95986.59;4391801;32;20189;-56
2023/03/28 00:10:15;;;;;;;0.40;0.40;;;;;;;3.06;85.38;95985.69;4391978;32;20331;-55
2023/03/28 00:12:41;;;;;;;0.73;0.73;;;;;;;3.08;85.42;95988.09;4395074;32;20275;-55
2023/03/28 00:15:07;;;;;;;0.30;0.30;;;;;;;3.12;85.31;95989.19;4374798;32;20192;-55
2023/03/28 00:17:33;;;;;;;0.30;0.30;;;;;;;3.30;84.99;95986.47;4371104;32;20294;-55
2023/03/28 00:20:03;;;;;;;0.70;0.70;;;;;;;3.20;83.75;95994.09;4390820;32;20184;-54
2023/03/28 00:22:32;;;;;;;0.27;0.27;;;;;;;3.06;84.12;95993.56;4376977;32;20295;-54
2023/03/28 00:24:58;;;;;;;0.57;0.57;;;;;;;3.21;83.86;95993.06;4388579;32;20295;-55
2023/03/28 00:27:24;;;;;;;0.70;0.70;;;;;;;3.33;83.25;95985.97;4393394;32;20323;-57
2023/03/28 00:29:50;;;;;;;0.47;0.47;;;;;;;3.28;83.46;95999.00;4391832;32;20244;-55
2023/03/28 00:32:16;;;;;;;0.90;0.90;;;;;;;3.29;83.61;95995.34;4385233;32;20267;-56
2023/03/28 00:34:41;;;;;;;0.57;0.57;;;;;;;3.28;83.15;96001.63;4389799;32;20288;-55
2023/03/28 00:37:09;;;;;;;0.50;0.50;;;;;;;3.18;83.84;96004.00;4391792;32;20261;-54
2023/03/28 00:39:35;;;;;;;0.70;0.70;;;;;;;3.05;83.89;96009.50;4371314;32;20218;-56
2023/03/28 00:42:02;;;;;;;0.70;0.70;;;;;;;3.20;83.33;96012.44;4376231;32;20280;-53
2023/03/28 00:44:44;;;;;;;0.40;0.40;;;;;;;3.19;82.50;96008.22;4376701;32;20319;-56
2023/03/28 00:47:37;;;;;;;0.57;0.57;;;;;;;3.29;83.17;96020.78;4376249;32;20287;-54
2023/03/28 00:50:09;;;;;;;0.30;0.30;;;;;;;3.27;81.97;96021.00;4363417;32;20280;-54
2023/03/28 00:52:41;;;;;;;0.73;0.73;;;;;;;3.37;82.74;96018.56;4383625;32;20295;-56
2023/03/28 00:55:11;;;;;;;1.43;1.33;;;;;;;3.33;82.59;96021.87;4388196;32;20273;-53
2023/03/28 00:57:37;;;;;;;0.13;0.13;;;;;;;3.14;81.94;96023.84;4388203;32;20283;-50
2023/03/28 01:00:08;;;;;;;0.77;0.77;;;;;;;3.21;81.39;96026.34;4387370;32;20291;-55
2023/03/28 01:02:38;;;;;;;0.53;0.53;;;;;;;3.15;82.17;96022.81;4376444;32;20320;-55
2023/03/28 01:05:04;;;;;;;0.50;0.50;;;;;;;3.23;82.24;96032.16;4384522;32;20406;-52
2023/03/28 01:07:39;;;;;;;0.50;0.50;;;;;;;3.16;82.25;96027.03;4377656;32;20288;-54
2023/03/28 01:10:06;;;;;;;0.77;0.77;;;;;;;3.30;82.46;96022.37;4388257;32;20184;-54
2023/03/28 01:12:33;;;;;;;0.77;0.77;;;;;;;3.03;82.24;96020.22;4389755;32;20295;-54
2023/03/28 01:15:00;;;;;;;0.40;0.40;;;;;;;3.13;82.49;96022.25;4381227;32;20322;-56
2023/03/28 01:17:26;;;;;;;0.80;0.73;;;;;;;3.06;82.66;96011.09;4377076;32;20284;-56
2023/03/28 01:20:48;;;;;;;0.70;0.70;;;;;;;3.12;82.89;96023.25;4391049;32;20346;-54
2023/03/28 01:23:19;;;;;;;0.50;0.50;;;;;;;3.02;83.13;96020.44;4310382;33;20283;-55
2023/03/28 01:26:16;;;;;;;0.77;0.77;;;;;;;3.21;82.69;96019.28;4313230;33;20350;-55
2023/03/28 01:29:03;;;;;;;0.77;0.77;;;;;;;3.32;83.03;96025.56;4357946;32;20319;-53
2023/03/28 01:31:59;;;;;;;1.27;1.27;;;;;;;3.35;82.53;96022.44;4385373;32;20290;-54
2023/03/28 01:34:43;;;;;;;0.90;0.90;;;;;;;3.06;83.31;96022.37;4379815;32;20292;-56
2023/03/28 01:37:13;;;;;;;0.73;0.73;;;;;;;3.15;82.81;96030.69;4381859;32;20276;-56
2023/03/28 01:39:51;;;;;;;0.80;0.80;;;;;;;3.20;82.86;96033.41;4381246;32;20280;-54
2023/03/28 01:43:15;;;;;;;0.80;0.80;;;;;;;3.26;83.70;96032.50;4378955;32;20284;-54
2023/03/28 01:46:19;;;;;;;1.40;1.40;;;;;;;2.97;83.90;96028.19;4314211;32;20401;-57
2023/03/28 01:49:15;;;;;;;1.70;0.70;;;;;;;3.07;83.35;96036.28;4381521;32;20375;-55
2023/03/28 01:52:00;;;;;;;2.80;2.00;;;;;;;3.14;83.09;96039.56;4371423;32;20276;-56
2023/03/28 01:54:50;;;;;;;0.83;0.83;;;;;;;3.03;83.73;96043.00;4388958;32;20334;-55
2023/03/28 01:57:26;;;;;;;0.63;0.63;;;;;;;2.84;84.46;96036.25;4373930;32;20438;-56
2023/03/28 02:00:19;;;;;;;0.77;0.77;;;;;;;2.83;84.80;96045.16;4390898;32;20294;-52
2023/03/28 02:02:51;;;;;;;0.67;0.67;;;;;;;2.85;84.28;96037.87;4390493;32;20316;-56
2023/03/28 02:05:20;;;;;;;1.63;1.63;;;;;;;2.73;84.75;96043.06;4388092;32;20389;-54
2023/03/28 02:07:48;;;;;;;0.80;0.80;;;;;;;2.59;84.92;96041.69;4375019;32;20458;-54
2023/03/28 02:10:16;;;;;;;1.80;1.53;;;;;;;2.61;84.93;96050.12;4390424;32;20280;-53
2023/03/28 02:12:50;;;;;;;1.27;1.17;;;;;;;2.69;84.72;96052.44;4384476;32;20291;-56
2023/03/28 02:15:18;;;;;;;0.80;0.80;;;;;;;2.83;84.24;96055.63;4377236;32;20360;-55
2023/03/28 02:17:52;;;;;;;1.43;1.27;;;;;;;2.81;83.93;96055.06;4392863;32;20279;-53
2023/03/28 02:20:23;;;;;;;0.60;0.60;;;;;;;2.90;83.87;96053.72;4391928;32;20310;-52
2023/03/28 02:22:54;;;;;;;1.60;1.33;;;;;;;2.81;84.09;96049.81;4385015;32;20295;-54
2023/03/28 02:25:20;;;;;;;1.07;1.07;;;;;;;2.88;83.61;96053.13;4389528;32;20288;-55
2023/03/28 02:27:51;;;;;;;1.00;1.00;;;;;;;2.64;84.40;96055.72;4379433;32;20374;-52
2023/03/28 02:30:17;;;;;;;0.87;0.87;;;;;;;2.64;84.63;96055.72;4375957;32;20195;-55
2023/03/28 02:32:48;;;;;;;0.93;0.93;;;;;;;2.59;84.96;96058.19;4391102;32;20272;-54
2023/03/28 02:35:15;;;;;;;0.90;0.90;;;;;;;2.57;84.93;96069.91;4387872;32;20280;-56
2023/03/28 02:38:09;;;;;;;1.30;1.30;;;;;;;2.63;84.83;96069.84;4378170;32;20289;-54
2023/03/28 02:40:57;;;;;;;0.70;0.63;;;;;;;2.74;83.77;96071.66;4387915;32;20361;-57
2023/03/28 02:43:46;;;;;;;1.27;1.17;;;;;;;2.76;84.35;96074.84;4390701;32;20347;-55
2023/03/28 02:46:20;;;;;;;2.27;1.00;;;;;;;2.36;84.42;96077.25;4381489;32;20285;-56
2023/03/28 02:49:15;;;;;;;0.90;0.90;;;;;;;2.37;85.40;96065.78;4392391;32;20416;-55
2023/03/28 02:51:48;;;;;;;1.33;1.30;;;;;;;2.27;85.02;96065.53;4391836;32;20292;-56
2023/03/28 02:54:26;;;;;;;1.63;1.53;;;;;;;2.29;84.67;96079.16;4386832;32;20291;-54
2023/03/28 02:57:00;;;;;;;0.53;0.53;;;;;;;2.36;85.20;96077.25;4390587;32;20303;-54
2023/03/28 02:59:35;;;;;;;0.87;0.87;;;;;;;2.44;84.29;96067.50;4376834;32;20280;-56
2023/03/28 03:02:02;;;;;;;0.60;0.60;;;;;;;2.36;84.47;96079.09;4374686;32;20303;-57
2023/03/28 03:04:27;;;;;;;0.47;0.47;;;;;;;2.35;85.38;96074.88;4389863;32;20294;-54
2023/03/28 03:06:53;;;;;;;1.53;1.43;;;;;;;2.35;84.83;96078.28;4391235;32;20284;-54
2023/03/28 03:09:18;;;;;;;1.47;1.47;;;;;;;2.15;84.83;96082.19;4392652;32;20208;-54
2023/03/28 03:11:44;;;;;;;0.90;0.77;;;;;;;2.38;84.18;96082.28;4378407;32;20227;-55
2023/03/28 03:14:10;;;;;;;1.13;1.13;;;;;;;2.42;84.24;96080.81;4373876;32;20185;-53
2023/03/28 03:16:37;;;;;;;1.10;1.10;;;;;;;2.51;83.40;96084.69;4391133;32;20192;-54
2023/03/28 03:19:03;;;;;;;1.10;1.10;;;;;;;2.22;84.53;96088.16;4387666;32;20276;-56
2023/03/28 03:21:28;;;;;;;1.07;1.07;;;;;;;2.54;83.58;96086.88;4376468;32;20303;-57
2023/03/28 03:23:54;;;;;;;1.90;1.20;;;;;;;2.44;83.88;96096.31;4385085;32;20226;-55
2023/03/28 03:26:19;;;;;;;1.33;1.33;;;;;;;2.18;84.05;96093.00;4387893;32;20193;-53
2023/03/28 03:28:44;;;;;;;0.60;0.60;;;;;;;2.29;83.97;96088.84;4392400;32;20322;-55
2023/03/28 03:31:10;;;;;;;0.70;0.70;;;;;;;2.46;83.63;96100.31;4387753;32;20185;-55
2023/03/28 03:33:36;;;;;;;0.90;0.90;;;;;;;2.46;83.49;96092.44;4391009;32;20192;-55
2023/03/28 03:36:03;;;;;;;0.77;0.77;;;;;;;2.30;83.83;96087.81;4389371;32;20188;-55
2023/03/28 03:38:29;;;;;;;1.10;0.87;;;;;;;2.52;83.38;96104.63;4378525;32;20292;-54
2023/03/28 03:40:55;;;;;;;1.17;1.17;;;;;;;2.39;82.73;96092.53;4391323;32;20299;-55
2023/03/28 03:43:20;;;;;;;1.00;1.00;;;;;;;2.14;84.94;96101.53;4388803;32;20295;-55
2023/03/28 03:45:45;;;;;;;0.60;0.60;;;;;;;2.20;84.78;96103.25;4371461;32;20303;-55
2023/03/28 03:48:11;;;;;;;1.27;1.27;;;;;;;2.13;84.70;96115.63;4382468;32;20188;-55
2023/03/28 03:50:36;;;;;;;9.00;1.60;;;;;;;2.22;83.85;96107.25;4390449;32;20236;-56
2023/03/28 03:53:02;;;;;;;1.70;1.23;;;;;;;2.38;83.82;96109.25;4378457;32;20188;-55
2023/03/28 03:55:27;;;;;;;0.70;0.70;;;;;;;2.17;83.73;96122.03;4370355;32;20180;-55
2023/03/28 03:57:53;;;;;;;1.10;1.10;;;;;;;2.13;84.07;96115.63;4387481;32;20192;-56
2023/03/28 04:00:18;;;;;;;0.67;0.67;;;;;;;2.46;83.11;96123.88;4391868;32;20222;-56
2023/03/28 04:02:44;;;;;;;1.00;1.00;;;;;;;2.34;83.25;96117.78;4391385;32;20264;-55
2023/03/28 04:05:09;;;;;;;1.60;1.50;;;;;;;2.37;83.12;96122.56;4391548;32;20188;-56
2023/03/28 04:07:35;;;;;;;0.40;0.40;;;;;;;2.23;83.86;96127.19;4387040;32;20188;-55
2023/03/28 04:10:01;;;;;;;0.90;0.90;;;;;;;2.21;83.81;96123.97;4387466;32;20214;-56
2023/03/28 04:12:26;;;;;;;1.03;1.03;;;;;;;2.31;83.98;96133.91;4389247;32;20188;-56
2023/03/28 04:14:51;;;;;;;1.57;1.57;;;;;;;2.37;82.79;96128.59;4372854;32;20249;-55
2023/03/28 04:17:20;;;;;;;1.37;1.27;;;;;;;2.34;83.20;96134.28;4389584;32;20203;-55
2023/03/28 04:19:46;;;;;;;1.87;1.77;;;;;;;2.40;83.32;96133.41;4387000;32;20252;-56
2023/03/28 04:22:12;;;;;;;5.87;1.10;;;;;;;2.35;83.08;96137.69;4384365;32;20275;-57
2023/03/28 04:24:40;;;;;;;1.27;1.27;;;;;;;2.11;83.53;96141.22;4374207;32;20358;-54
2023/03/28 04:27:08;;;;;;;0.77;0.67;;;;;;;2.27;82.91;96130.16;4389208;32;20184;-57
2023/03/28 04:29:33;;;;;;;0.97;0.97;;;;;;;2.11;83.65;96147.25;4385688;32;20327;-55
2023/03/28 04:31:59;;;;;;;1.17;1.17;;;;;;;2.08;84.07;96143.25;4375108;32;20401;-55
2023/03/28 04:34:28;;;;;;;1.50;1.50;;;;;;;2.18;83.32;96144.56;4389059;32;20188;-54
2023/03/28 04:37:01;;;;;;;1.17;1.10;;;;;;;1.90;83.90;96148.47;4375942;32;20191;-55
2023/03/28 04:39:31;;;;;;;1.77;1.77;;;;;;;2.05;83.85;96154.16;4384665;32;20277;-55
2023/03/28 04:42:00;;;;;;;1.20;1.20;;;;;;;1.98;84.13;96155.25;4386095;32;20281;-54
2023/03/28 04:44:26;;;;;;;2.60;1.57;;;;;;;1.97;84.34;96149.22;4377422;32;20271;-54
2023/03/28 04:46:51;;;;;;;1.97;1.80;;;;;;;1.87;85.01;96154.16;4393449;32;20363;-55
2023/03/28 04:49:17;;;;;;;0.70;0.70;;;;;;;2.17;83.29;96153.44;4385014;32;20342;-52
2023/03/28 04:51:42;;;;;;;1.17;1.17;;;;;;;1.82;84.43;96150.59;4390389;32;20202;-55
2023/03/28 04:54:07;;;;;;;2.93;1.30;;;;;;;1.89;84.63;96159.97;4389758;32;20196;-56
2023/03/28 04:56:33;;;;;;;0.73;0.73;;;;;;;2.18;83.43;96145.34;4387932;32;20238;-54
2023/03/28 04:58:58;;;;;;;4.33;1.60;;;;;;;2.28;82.62;96157.94;4389054;32;20211;-53
2023/03/28 05:01:25;;;;;;;2.00;1.90;;;;;;;2.14;83.10;96159.09;4393347;32;20260;-54
2023/03/28 05:03:51;;;;;;;1.03;1.03;;;;;;;2.18;82.79;96160.25;4373916;32;20224;-57
2023/03/28 05:06:17;;;;;;;1.30;1.30;;;;;;;2.25;82.71;96164.41;4375024;32;20303;-55
2023/03/28 05:08:42;;;;;;;2.13;1.93;;;;;;;2.30;82.25;96161.91;4388137;32;20195;-56
2023/03/28 05:11:08;;;;;;;1.70;0.90;;;;;;;2.17;82.64;96166.50;4389657;32;20200;-55
2023/03/28 05:13:33;;;;;;;1.97;1.50;;;;;;;2.22;82.85;96164.03;4370305;32;20197;-56
2023/03/28 05:15:59;;;;;;;1.70;1.60;;;;;;;2.21;82.96;96171.09;4389496;32;20192;-56
2023/03/28 05:18:24;;;;;;;2.43;1.33;;;;;;;2.26;82.21;96166.00;4375695;32;20194;-57
2023/03/28 05:20:50;;;;;;;3.10;1.13;;;;;;;2.20;81.88;96168.69;4385474;32;20188;-55
2023/03/28 05:23:15;;;;;;;1.07;1.07;;;;;;;2.20;82.55;96179.97;4388563;32;24471;-57
2023/03/28 05:25:41;;;;;;;2.20;1.63;;;;;;;2.14;82.64;96187.88;4387631;32;20192;-57
2023/03/28 05:28:06;;;;;;;1.50;1.50;;;;;;;2.07;82.60;96185.34;4373325;32;20193;-55
2023/03/28 05:30:31;;;;;;;1.50;1.40;;;;;;;2.01;82.81;96188.84;4389848;32;20222;-55
2023/03/28 05:32:58;;;;;;;1.60;1.50;;;;;;;1.94;82.64;96190.72;4393751;32;20255;-56
2023/03/28 05:35:23;;;;;;;2.90;2.70;;;;;;;2.20;82.41;96190.44;4379779;32;20211;-56
2023/03/28 05:37:49;;;;;;;2.03;1.63;;;;;;;2.10;82.41;96192.75;4386743;32;20309;-55
2023/03/28 05:40:15;;;;;;;1.87;1.87;;;;;;;2.29;81.89;96193.53;4383356;32;20252;-53
2023/03/28 05:42:41;;;;;;;1.80;1.70;;;;;;;2.20;82.14;96200.91;4390019;32;20189;-54
2023/03/28 05:45:08;;;;;;;2.50;2.27;;;;;;;2.15;81.75;96197.31;4390565;32;20330;-55
2023/03/28 05:47:34;;;;;;;3.23;1.47;;;;;;;1.90;82.41;96205.22;4380751;32;20203;-56
2023/03/28 05:50:00;;;;;;;1.50;1.50;;;;;;;1.82;82.73;96205.53;4377766;32;20332;-56
2023/03/28 05:52:26;;;;;;;1.03;1.03;;;;;;;1.98;82.57;96211.00;4384240;32;20307;-54
2023/03/28 05:54:51;;;;;;;0.97;0.97;;;;;;;2.10;82.25;96211.06;4386463;32;20192;-56
2023/03/28 05:57:17;;;;;;;1.23;1.23;;;;;;;2.02;82.90;96213.97;4365257;32;20180;-56
2023/03/28 05:59:43;;;;;;;1.53;1.43;;;;;;;1.75;83.78;96217.88;4383478;32;20212;-51
2023/03/28 06:02:15;;;;;;;1.43;1.43;;;;;;;1.80;83.49;96218.03;4389932;32;20288;-53
2023/03/28 06:04:41;;;;;;;0.93;0.93;;;;;;;1.94;83.58;96222.91;4386427;32;20184;-56
2023/03/28 06:07:07;;;;;;;2.00;1.90;;;;;;;2.04;82.83;96225.84;4387236;32;20303;-54
2023/03/28 06:09:33;;;;;;;1.10;1.07;;;;;;;2.14;82.56;96222.69;4388362;32;20302;-56
2023/03/28 06:12:00;;;;;;;1.97;1.87;;;;;;;2.27;81.97;96225.19;4386857;32;20276;-54
2023/03/28 06:14:26;;;;;;;1.63;1.53;;;;;;;2.27;82.03;96227.00;4374550;32;20315;-55
2023/03/28 06:16:51;;;;;;;1.83;1.73;;;;;;;2.31;81.29;96234.19;4389811;32;20288;-59
2023/03/28 06:19:17;;;;;;;2.00;1.90;;;;;;;2.44;82.86;96235.87;4393811;32;20298;-60
2023/03/28 06:21:42;;;;;;;1.47;1.37;;;;;;;4.88;100.00;96229.25;4392436;32;20239;-60
2023/03/28 06:24:09;;;;;;;2.33;2.13;;;;;;;5.52;99.81;96225.38;4391473;32;20215;-61
2023/03/28 06:26:34;;;;;;;1.77;1.60;;;;;;;7.13;100.00;96229.63;4375492;32;20196;-60
2023/03/28 06:28:59;;;;;;;13.53;2.53;;;;;;;7.94;95.65;96230.31;4388531;32;20322;-60
2023/03/28 06:31:25;;;;;;;3.57;2.53;;;;;;;9.93;92.51;96224.62;4392804;32;20268;-60
2023/03/28 06:33:50;;;;;;;1.73;1.63;;;;;;;10.44;83.50;96232.50;4387026;32;20201;-58
2023/03/28 06:36:15;;;;;;;0.50;0.50;;;;;;;8.76;58.35;96242.16;4391689;32;21940;-56
2023/03/28 06:38:41;;;;;;;0.90;0.90;;;;;;;6.76;62.22;96254.00;4392658;32;20193;-56
2023/03/28 06:41:06;;;;;;;1.57;1.47;;;;;;;5.21;66.12;96270.59;4372073;32;20244;-53
2023/03/28 06:43:32;;;;;;;0.73;0.73;;;;;;;4.45;69.95;96271.75;4376242;32;20181;-56
2023/03/28 06:45:57;;;;;;;0.73;0.73;;;;;;;3.79;72.83;96273.69;4387013;32;20196;-56
2023/03/28 06:48:28;;;;;;;0.83;0.83;;;;;;;3.64;73.81;96272.53;4394894;32;20189;-56
2023/03/28 06:50:53;;;;;;;1.70;1.27;;;;;;;3.72;74.29;96275.63;4392756;32;20194;-56
2023/03/28 06:53:19;;;;;;;0.87;0.87;;;;;;;3.35;76.77;96282.03;4391515;32;20280;-56
2023/03/28 06:55:44;;;;;;;1.23;1.23;;;;;;;3.32;76.00;96282.50;4377038;32;20192;-56
2023/03/28 06:58:10;;;;;;;1.00;1.00;;;;;;;3.06;76.77;96291.53;4375411;32;20226;-56
2023/03/28 07:00:36;;;;;;;1.87;1.77;;;;;;;3.29;76.10;96286.38;4390538;32;20200;-57
2023/03/28 07:03:01;;;;;;;0.97;0.97;;;;;;;3.36;76.90;96287.06;4365564;32;20184;-57
2023/03/28 07:05:26;;;;;;;1.57;1.27;;;;;;;3.54;74.55;96290.63;4393394;32;20197;-57
2023/03/28 07:07:52;;;;;;;0.53;0.53;;;;;;;3.38;73.78;96292.88;4380205;32;20203;-57
2023/03/28 07:10:17;;;;;;;1.83;1.77;;;;;;;3.21;75.62;96302.41;4388152;32;20193;-55
2023/03/28 07:12:42;;;;;;;1.47;1.40;;;;;;;3.24;75.16;96306.41;4375341;32;20222;-55
2023/03/28 07:15:08;;;;;;;2.53;1.17;;;;;;;3.12;74.91;96306.34;4367147;32;20197;-57
2023/03/28 07:17:34;;;;;;;1.23;1.23;;;;;;;2.95;77.53;96307.97;4383753;32;20211;-55
2023/03/28 07:20:00;;;;;;;1.33;1.33;;;;;;;2.96;76.43;96314.81;4366432;32;20188;-55
2023/03/28 07:22:26;;;;;;;0.90;0.90;;;;;;;3.04;75.84;96314.53;4382964;32;20188;-56
2023/03/28 07:24:51;;;;;;;3.70;0.87;;;;;;;3.06;75.90;96320.34;4387531;32;20284;-55
2023/03/28 07:27:16;;;;;;;0.90;0.90;;;;;;;3.19;75.16;96320.19;4390954;32;20381;-57
2023/03/28 07:29:42;;;;;;;0.67;0.67;;;;;;;3.25;74.03;96319.28;4389771;32;20211;-57
2023/03/28 07:32:07;;;;;;;0.87;0.87;;;;;;;3.25;74.65;96327.16;4375554;32;20201;-58
2023/03/28 07:34:32;;;;;;;1.63;1.17;;;;;;;3.21;74.28;96322.56;4391312;32;20338;-58
2023/03/28 07:36:58;;;;;;;1.23;1.23;;;;;;;3.13;76.30;96328.91;4388949;32;20194;-56
2023/03/28 07:39:23;;;;;;;0.73;0.73;;;;;;;3.20;75.25;96327.00;4375666;32;20238;-57
2023/03/28 07:41:48;;;;;;;1.30;1.30;;;;;;;3.24;75.51;96328.19;4377671;32;20192;-54
2023/03/28 07:44:14;;;;;;;1.57;1.47;;;;;;;3.45;73.78;96338.19;4388564;32;20219;-54
2023/03/28 07:46:39;;;;;;;0.93;0.83;;;;;;;3.62;73.26;96330.47;4386416;32;20184;-54
2023/03/28 07:49:05;;;;;;;0.73;0.73;;;;;;;3.76;72.13;96325.81;4378613;32;20267;-54
2023/03/28 07:51:30;;;;;;;1.10;1.07;;;;;;;3.79;71.87;96333.25;4391905;32;20247;-57
2023/03/28 07:53:56;;;;;;;3.53;0.83;;;;;;;3.76;70.89;96331.06;4391326;32;20197;-57
2023/03/28 07:56:21;;;;;;;0.70;0.70;;;;;;;3.79;71.63;96339.28;4390951;32;20256;-55
2023/03/28 07:58:47;;;;;;;0.60;0.60;;;;;;;3.72;69.50;96340.44;4377521;32;20283;-56
2023/03/28 08:01:13;;;;;;;0.80;0.80;;;;;;;3.75;69.69;96346.00;4388817;32;20249;-55
2023/03/28 08:03:39;;;;;;;0.50;0.50;;;;;;;3.85;68.11;96349.91;4387794;32;20181;-56
2023/03/28 08:06:07;;;;;;;0.73;0.73;;;;;;;3.96;69.61;96347.31;4388696;32;20189;-54
2023/03/28 08:08:32;;;;;;;1.03;0.53;;;;;;;3.97;69.17;96342.84;4374403;32;20310;-56
2023/03/28 08:10:58;;;;;;;0.93;0.93;;;;;;;4.08;68.63;96348.13;4372088;32;20303;-57
2023/03/28 08:13:24;;;;;;;1.37;1.00;;;;;;;4.35;68.25;96347.72;4380398;32;20198;-57
2023/03/28 08:15:50;;;;;;;0.70;0.70;;;;;;;4.22;68.42;96350.53;4376968;32;20252;-56
2023/03/28 08:18:20;;;;;;;0.50;0.50;;;;;;;4.54;66.65;96351.81;4384918;32;20231;-56
2023/03/28 08:20:48;;;;;;;0.40;0.40;;;;;;;4.31;66.29;96355.25;4366650;32;20324;-56
2023/03/28 08:23:14;;;;;;;0.53;0.53;;;;;;;4.32;67.05;96356.03;4379164;32;20315;-58
2023/03/28 08:25:40;;;;;;;4.53;0.90;;;;;;;4.23;65.87;96362.62;4370706;32;20291;-56
2023/03/28 08:28:05;;;;;;;0.90;0.90;;;;;;;4.59;64.57;96361.62;4387050;32;20227;-56
2023/03/28 08:30:30;;;;;;;0.17;0.17;;;;;;;4.67;65.87;96353.41;4373576;32;20226;-57
2023/03/28 08:32:56;;;;;;;3.50;0.90;;;;;;;4.56;65.53;96362.91;4384030;32;20180;-55
2023/03/28 08:35:21;;;;;;;2.43;1.20;;;;;;;4.64;63.42;96352.03;4388139;32;20204;-57
2023/03/28 08:37:48;;;;;;;0.47;0.47;;;;;;;4.70;65.22;96364.25;4378461;32;20472;-55
2023/03/28 08:40:17;;;;;;;0.30;0.23;;;;;;;4.86;63.86;96365.37;4376220;32;20192;-56
2023/03/28 08:43:00;;;;;;;0.43;0.43;;;;;;;5.06;61.33;96367.63;4371025;32;20342;-56
2023/03/28 08:45:41;;;;;;;0.73;0.73;;;;;;;4.91;60.65;96369.94;4377100;32;20299;-57
2023/03/28 08:48:09;;;;;;;0.20;0.20;;;;;;;5.20;62.02;96368.94;4369935;32;20280;-57
2023/03/28 08:50:46;;;;;;;0.80;0.80;;;;;;;5.27;59.98;96371.44;4383425;32;20280;-58
2023/03/28 08:53:29;;;;;;;0.57;0.57;;;;;;;5.46;62.18;96370.22;4388475;32;20329;-57
2023/03/28 08:55:56;;;;;;;0.47;0.47;;;;;;;5.72;58.86;96368.88;4385651;32;20279;-57
2023/03/28 08:58:26;;;;;;;0.40;0.40;;;;;;;5.90;58.20;96358.16;4390041;32;20288;-55
2023/03/28 09:00:51;;;;;;;0.37;0.37;;;;;;;5.60;56.40;96368.16;4376523;32;20303;-56
2023/03/28 09:03:20;;;;;;;0.93;0.50;;;;;;;5.73;55.56;96367.84;4387371;32;23068;-54
2023/03/28 09:06:06;;;;;;;0.30;0.30;;;;;;;5.15;56.57;96377.56;4388243;32;20294;-58
2023/03/28 09:08:36;;;;;;;2.73;0.70;;;;;;;5.26;56.95;96372.47;4390781;32;20296;-56
2023/03/28 09:11:20;;;;;;;0.50;0.50;;;;;;;4.91;57.34;96381.25;4379623;32;20276;-57
2023/03/28 09:14:18;;;;;;;0.60;0.60;;;;;;;5.59;57.48;96377.06;4389661;32;20322;-56
2023/03/28 09:17:02;;;;;;;0.83;0.43;;;;;;;5.52;56.46;96382.47;4379188;32;20299;-56
2023/03/28 09:19:53;;;;;;;0.40;0.40;;;;;;;5.58;55.95;96375.47;4392391;32;20290;-56
2023/03/28 09:22:30;;;;;;;0.50;0.50;;;;;;;5.44;55.98;96375.72;4391980;32;20397;-56
2023/03/28 09:25:17;;;;;;;0.10;0.10;;;;;;;5.19;57.47;96380.53;4385403;32;20433;-57
2023/03/28 09:27:55;;;;;;;0.40;0.40;;;;;;;5.67;53.44;96376.69;4388693;32;20318;-58
2023/03/28 09:30:27;;;;;;;0.77;0.77;;;;;;;5.67;53.06;96379.31;4387898;32;20326;-56
2023/03/28 09:32:59;;;;;;;0.30;0.30;;;;;;;5.89;53.69;96376.84;4382152;32;20375;-55
2023/03/28 09:35:29;;;;;;;0.13;0.13;;;;;;;5.82;52.27;96366.41;4369236;32;20281;-56
2023/03/28 09:38:14;;;;;;;0.30;0.30;;;;;;;6.04;52.90;96383.16;4370035;32;20275;-57
2023/03/28 09:40:45;;;;;;;0.43;0.43;;;;;;;5.94;52.77;96377.72;4377169;32;20293;-58
2023/03/28 09:43:14;;;;;;;0.10;0.10;;;;;;;6.32;51.25;96376.22;4388050;32;20295;-55
2023/03/28 09:45:39;;;;;;;0.30;0.30;;;;;;;5.93;51.81;96370.84;4388240;32;20288;-56
2023/03/28 09:48:31;;;;;;;0.17;0.17;;;;;;;6.16;51.36;96375.19;4385368;32;20324;-57
2023/03/28 09:50:58;;;;;;;0.50;0.30;;;;;;;5.86;47.03;96376.22;4374609;32;20184;-57
2023/03/28 09:53:23;;;;;;;0.20;0.20;;;;;;;5.90;48.06;96375.78;4394598;32;20284;-57
2023/03/28 09:55:50;;;;;;;0.10;0.10;;;;;;;6.04;46.52;96377.88;4391911;32;20288;-56
2023/03/28 09:58:17;;;;;;;0.37;0.37;;;;;;;6.09;47.97;96377.97;4381222;32;20235;-56
2023/03/28 10:00:47;;;;;;;0.17;0.17;;;;;;;5.95;49.26;96374.06;4388729;32;20276;-57
2023/03/28 10:03:29;;;;;;;0.50;0.50;;;;;;;5.91;50.43;96380.81;4393947;32;20288;-56
2023/03/28 10:05:59;;;;;;;0.30;0.30;;;;;;;5.80;50.66;96381.66;4384115;32;20292;-56
2023/03/28 10:08:33;;;;;;;0.53;0.53;;;;;;;5.71;51.38;96375.97;4379766;32;20294;-57
2023/03/28 10:11:05;;;;;;;0.93;0.60;;;;;;;5.63;51.69;96391.34;4385216;32;20295;-56
2023/03/28 10:13:39;;;;;;;0.37;0.37;;;;;;;5.22;52.51;96392.38;4372683;32;20290;-56
2023/03/28 10:16:05;;;;;;;0.20;0.20;;;;;;;5.23;52.85;96383.47;4384799;32;20275;-55
2023/03/28 10:18:31;;;;;;;1.43;0.40;;;;;;;5.23;54.84;96376.38;4387459;32;20284;-56
2023/03/28 10:21:05;;;;;;;0.43;0.43;;;;;;;5.33;53.65;96384.47;4391365;32;20280;-56
2023/03/28 10:23:30;;;;;;;0.40;0.40;;;;;;;5.46;53.51;96378.13;4364742;32;20190;-56
2023/03/28 10:26:01;;;;;;;0.10;0.10;;;;;;;5.75;56.81;96378.94;4391282;32;20280;-57
2023/03/28 10:28:33;;;;;;;0.30;0.30;;;;;;;6.17;55.70;96361.78;4377011;32;20184;-56
2023/03/28 10:31:01;;;;;;;0.33;0.33;;;;;;;6.24;53.34;96363.44;4391386;32;20280;-57
2023/03/28 10:33:41;;;;;;;0.67;0.50;;;;;;;6.35;52.82;96370.47;4373602;32;20304;-57
2023/03/28 10:36:11;;;;;;;0.07;0.07;;;;;;;6.49;52.83;96361.19;4375620;32;20303;-58
2023/03/28 10:38:42;;;;;;;0.43;0.40;;;;;;;6.29;50.89;96366.16;4389694;32;20377;-58
2023/03/28 10:41:19;;;;;;;0.33;0.33;;;;;;;5.93;51.07;96370.06;4393556;32;20276;-57
2023/03/28 10:43:45;;;;;;;0.53;0.53;;;;;;;6.20;51.58;96366.56;4383603;32;20280;-57
2023/03/28 10:46:15;;;;;;;1.00;0.57;;;;;;;6.18;51.62;96373.13;4378960;32;20292;-56
2023/03/28 10:48:47;;;;;;;0.10;0.10;;;;;;;6.60;50.41;96357.69;4388400;32;20185;-55
2023/03/28 10:51:21;;;;;;;0.83;0.80;;;;;;;6.72;48.96;96353.09;4381265;32;20341;-56
2023/03/28 10:54:02;;;;;;;1.90;0.53;;;;;;;6.43;47.90;96357.72;4389939;32;20300;-57
2023/03/28 10:56:33;;;;;;;0.10;0.10;;;;;;;6.25;49.52;96359.78;4393523;32;20329;-57
2023/03/28 10:59:29;;;;;;;2.20;0.30;;;;;;;6.46;49.87;96357.19;4377271;32;20291;-54
2023/03/28 11:02:04;;;;;;;0.47;0.47;;;;;;;5.98;48.95;96357.78;4388564;32;20276;-57
2023/03/28 11:05:07;;;;;;;1.33;0.80;;;;;;;6.00;50.41;96358.34;4380189;32;20310;-55
2023/03/28 11:07:58;;;;;;;4.63;0.50;;;;;;;6.30;48.58;96355.38;4375983;32;20329;-55
2023/03/28 11:10:30;;;;;;;0.30;0.30;;;;;;;6.05;46.51;96360.25;4382825;32;20280;-55
2023/03/28 11:13:05;;;;;;;0.13;0.13;;;;;;;6.05;47.59;96357.59;4380727;32;20284;-55
2023/03/28 11:15:49;;;;;;;0.20;0.20;;;;;;;6.06;47.13;96360.00;4387117;32;20310;-57
2023/03/28 11:18:50;;;;;;;0.50;0.47;;;;;;;5.91;47.21;96351.88;4388136;32;20330;-57
2023/03/28 11:21:27;;;;;;;0.10;0.10;;;;;;;6.18;48.15;96354.69;4344819;32;20395;-57
2023/03/28 11:24:11;;;;;;;0.50;0.50;;;;;;;6.20;48.91;96358.69;4381160;32;20314;-56
2023/03/28 11:26:52;;;;;;;0.10;0.10;;;;;;;6.48;47.83;96349.84;4379440;32;20316;-55
2023/03/28 11:29:40;;;;;;;0.60;0.60;;;;;;;6.38;48.05;96348.94;4385518;32;20319;-57
2023/03/28 11:32:17;;;;;;;1.40;0.67;;;;;;;6.35;48.64;96346.75;4373448;32;20280;-56
2023/03/28 11:35:11;;;;;;;0.10;0.10;;;;;;;6.53;48.88;96346.50;4375237;32;20341;-55
2023/03/28 11:37:44;;;;;;;0.87;0.63;;;;;;;6.05;47.01;96345.25;4360371;32;20323;-56
2023/03/28 11:40:16;;;;;;;0.10;0.10;;;;;;;6.24;47.21;96335.25;4391495;32;20279;-56
2023/03/28 11:42:50;;;;;;;0.30;0.30;;;;;;;6.51;46.88;96330.94;4377679;32;20280;-57
2023/03/28 11:45:30;;;;;;;0.20;0.20;;;;;;;6.64;44.98;96337.72;4375602;32;20327;-57
2023/03/28 11:48:18;;;;;;;0.17;0.17;;;;;;;6.96;47.56;96321.22;4385525;32;20378;-57
2023/03/28 11:50:46;;;;;;;0.30;0.30;;;;;;;6.91;46.25;96319.31;4387678;32;20277;-57
2023/03/28 11:53:46;;;;;;;0.27;0.27;;;;;;;7.18;45.72;96322.81;4384628;32;20273;-54
2023/03/28 11:56:33;;;;;;;2.70;0.93;;;;;;;7.19;45.59;96324.41;4367481;32;20304;-56
2023/03/28 11:59:05;;;;;;;0.63;0.63;;;;;;;7.07;48.01;96325.56;4375734;32;20280;-57